createdAt,value
2023-05-23T00:02:16.761Z,6.95
2023-05-23T00:04:44.541Z,7.10
2023-05-23T00:07:11.809Z,6.43
2023-05-23T00:09:39.102Z,7.05
2023-05-23T00:12:07.222Z,7.68
2023-05-23T00:14:35.694Z,7.15
2023-05-23T00:17:03.113Z,5.75
2023-05-23T00:19:30.487Z,6.95
2023-05-23T00:21:58.701Z,6.50
2023-05-23T00:24:26.098Z,7.65
2023-05-23T00:26:53.338Z,6.35
2023-05-23T00:29:20.946Z,6.82
2023-05-23T00:31:48.243Z,7.78
2023-05-23T00:34:17.926Z,8.80
2023-05-23T00:36:48.184Z,7.78
2023-05-23T00:39:22.029Z,7.82
2023-05-23T00:41:52.167Z,6.97
2023-05-23T00:44:21.566Z,8.05
2023-05-23T00:46:56.476Z,6.90
2023-05-23T00:49:24.457Z,7.20
2023-05-23T00:51:52.599Z,7.97
2023-05-23T00:54:27.485Z,7.25
2023-05-23T00:56:55.492Z,8.80
2023-05-23T00:59:25.996Z,5.97
2023-05-23T01:01:55.931Z,7.82
2023-05-23T01:04:29.658Z,6.93
2023-05-23T01:06:57.387Z,7.10
2023-05-23T01:09:26.503Z,6.68
2023-05-23T01:11:57.136Z,6.97
2023-05-23T01:14:45.382Z,5.85
2023-05-23T01:17:20.152Z,6.30
2023-05-23T01:19:57.710Z,6.68
2023-05-23T01:22:42.069Z,7.47
2023-05-23T01:25:47.141Z,6.53
2023-05-23T01:28:22.062Z,6.60
2023-05-23T01:30:52.489Z,7.65
2023-05-23T01:33:22.749Z,7.22
2023-05-23T01:35:50.118Z,7.95
2023-05-23T01:38:17.495Z,6.30
2023-05-23T01:40:45.116Z,7.30
2023-05-23T01:43:12.504Z,7.47
2023-05-23T01:45:40.557Z,7.50
2023-05-23T01:48:09.485Z,7.65
2023-05-23T01:50:37.019Z,7.13
2023-05-23T01:53:05.626Z,6.00
2023-05-23T01:55:33.257Z,7.47
2023-05-23T01:58:01.965Z,6.55
2023-05-23T02:00:29.260Z,7.00
2023-05-23T02:02:56.592Z,6.95
2023-05-23T02:05:23.876Z,6.07
2023-05-23T02:07:51.058Z,6.82
2023-05-23T02:10:19.373Z,7.35
2023-05-23T02:12:46.888Z,7.15
2023-05-23T02:15:14.264Z,6.97
2023-05-23T02:17:41.628Z,7.38
2023-05-23T02:20:10.272Z,6.30
2023-05-23T02:22:37.558Z,6.70
2023-05-23T02:25:05.269Z,6.63
2023-05-23T02:27:33.425Z,6.63
2023-05-23T02:30:00.588Z,6.35
2023-05-23T02:32:29.673Z,6.13
2023-05-23T02:34:57.566Z,6.18
2023-05-23T02:37:24.969Z,6.65
2023-05-23T02:39:52.094Z,5.90
2023-05-23T02:42:19.392Z,5.47
2023-05-23T02:44:46.551Z,7.22
2023-05-23T02:47:13.836Z,6.32
2023-05-23T02:49:41.018Z,6.50
2023-05-23T02:52:08.264Z,6.82
2023-05-23T02:54:35.591Z,6.45
2023-05-23T02:57:02.770Z,6.40
2023-05-23T02:59:32.227Z,6.55
2023-05-23T03:01:59.507Z,5.97
2023-05-23T03:04:27.635Z,6.88
2023-05-23T03:06:55.213Z,5.63
2023-05-23T03:09:22.581Z,6.72
2023-05-23T03:11:49.849Z,8.07
2023-05-23T03:14:17.368Z,6.80
2023-05-23T03:16:45.546Z,6.07
2023-05-23T03:19:13.239Z,6.50
2023-05-23T03:21:41.017Z,5.72
2023-05-23T03:24:08.420Z,5.65
2023-05-23T03:26:36.640Z,6.00
2023-05-23T03:29:03.939Z,6.30
2023-05-23T03:31:31.145Z,5.90
2023-05-23T03:33:58.387Z,5.75
2023-05-23T03:36:26.128Z,5.25
2023-05-23T03:38:53.445Z,5.75
2023-05-23T03:41:21.548Z,5.75
2023-05-23T03:43:48.842Z,5.45
2023-05-23T03:46:16.309Z,5.40
2023-05-23T03:48:43.885Z,6.10
2023-05-23T03:51:13.491Z,5.15
2023-05-23T03:53:41.664Z,5.75
2023-05-23T03:56:08.928Z,5.10
2023-05-23T03:58:36.368Z,6.38
2023-05-23T04:01:09.416Z,5.70
2023-05-23T04:03:36.952Z,5.50
2023-05-23T04:06:04.920Z,5.05
2023-05-23T04:08:34.423Z,4.75
2023-05-23T04:11:02.199Z,5.43
2023-05-23T04:13:33.375Z,4.78
2023-05-23T04:16:02.360Z,4.85
2023-05-23T04:18:30.522Z,4.70
2023-05-23T04:20:57.825Z,5.78
2023-05-23T04:23:25.346Z,4.53
2023-05-23T04:25:54.612Z,4.03
2023-05-23T04:28:27.789Z,4.20
2023-05-23T04:30:56.436Z,4.35
2023-05-23T04:33:28.431Z,4.70
2023-05-23T04:35:56.316Z,4.10
2023-05-23T04:38:25.239Z,4.70
2023-05-23T04:40:52.950Z,3.78
2023-05-23T04:43:42.608Z,4.07
2023-05-23T04:46:42.393Z,4.63
2023-05-23T04:49:22.876Z,4.35
2023-05-23T04:51:50.282Z,3.65
2023-05-23T04:54:27.479Z,4.38
2023-05-23T04:56:56.481Z,4.15
2023-05-23T04:59:25.778Z,4.13
2023-05-23T05:01:53.114Z,4.18
2023-05-23T05:04:23.392Z,4.50
2023-05-23T05:06:52.539Z,4.53
2023-05-23T05:09:19.990Z,3.92
2023-05-23T05:11:47.277Z,4.05
2023-05-23T05:14:15.477Z,3.13
2023-05-23T05:16:42.951Z,4.32
2023-05-23T05:19:10.895Z,3.88
2023-05-23T05:21:38.285Z,4.22
2023-05-23T05:24:06.113Z,4.38
2023-05-23T05:26:33.597Z,4.28
2023-05-23T05:29:00.862Z,3.33
2023-05-23T05:31:29.671Z,3.95
2023-05-23T05:33:56.996Z,4.20
2023-05-23T05:36:24.200Z,3.42
2023-05-23T05:38:51.804Z,3.65
2023-05-23T05:41:20.676Z,2.92
2023-05-23T05:43:50.929Z,4.32
2023-05-23T05:46:18.488Z,4.05
2023-05-23T05:48:46.651Z,3.25
2023-05-23T05:51:14.710Z,3.47
2023-05-23T05:53:42.748Z,3.05
2023-05-23T05:56:10.038Z,3.65
2023-05-23T05:58:39.172Z,3.35
2023-05-23T06:01:08.721Z,3.33
2023-05-23T06:03:36.427Z,3.38
2023-05-23T06:06:03.828Z,3.38
2023-05-23T06:08:31.074Z,3.70
2023-05-23T06:10:58.388Z,3.35
2023-05-23T06:13:26.906Z,4.05
2023-05-23T06:15:54.768Z,2.85
2023-05-23T06:18:22.851Z,3.13
2023-05-23T06:20:51.357Z,3.92
2023-05-23T06:23:20.647Z,3.83
2023-05-23T06:25:48.321Z,3.08
2023-05-23T06:28:15.537Z,3.25
2023-05-23T06:30:42.914Z,4.45
2023-05-23T06:33:11.905Z,3.50
2023-05-23T06:35:39.262Z,3.67
2023-05-23T06:38:06.471Z,3.45
2023-05-23T06:40:33.861Z,2.53
2023-05-23T06:43:01.122Z,3.53
2023-05-23T06:45:54.648Z,2.63
2023-05-23T06:48:22.144Z,3.97
2023-05-23T06:50:49.836Z,2.97
2023-05-23T06:53:19.159Z,3.72
2023-05-23T06:55:48.118Z,3.33
2023-05-23T06:58:18.389Z,3.90
2023-05-23T07:00:45.798Z,3.50
2023-05-23T07:03:23.989Z,3.20
2023-05-23T07:05:51.913Z,2.53
2023-05-23T07:08:20.377Z,3.22
2023-05-23T07:10:59.942Z,2.97
2023-05-23T07:13:49.894Z,2.60
2023-05-23T07:16:36.046Z,2.90
2023-05-23T07:19:06.735Z,2.38
2023-05-23T07:21:38.750Z,2.20
2023-05-23T07:24:07.415Z,2.50
2023-05-23T07:26:35.028Z,2.53
2023-05-23T07:29:02.510Z,3.15
2023-05-23T07:31:29.978Z,3.78
2023-05-23T07:33:59.608Z,3.17
2023-05-23T07:36:35.756Z,2.53
2023-05-23T07:39:05.934Z,2.80
2023-05-23T07:41:33.150Z,2.92
2023-05-23T07:44:00.479Z,2.58
2023-05-23T07:46:27.867Z,2.63
2023-05-23T07:48:55.519Z,2.30
2023-05-23T07:51:23.664Z,2.78
2023-05-23T07:53:52.123Z,1.90
2023-05-23T07:56:22.166Z,2.40
2023-05-23T07:58:49.377Z,2.65
2023-05-23T08:01:16.845Z,2.60
2023-05-23T08:06:33.761Z,2.25
2023-05-23T08:09:06.793Z,2.70
2023-05-23T08:11:37.953Z,2.53
2023-05-23T08:14:06.469Z,1.92
2023-05-23T08:16:39.948Z,2.72
2023-05-23T08:19:12.596Z,2.78
2023-05-23T08:21:39.946Z,1.80
2023-05-23T08:24:07.407Z,2.10
2023-05-23T08:26:36.555Z,2.50
2023-05-23T08:29:06.254Z,2.85
2023-05-23T08:31:36.613Z,2.58
2023-05-23T08:34:05.155Z,2.83
2023-05-23T08:36:36.548Z,2.05
2023-05-23T08:41:36.862Z,2.75
2023-05-23T08:44:09.375Z,2.75
2023-05-23T08:46:46.966Z,2.33
2023-05-23T08:49:23.202Z,2.80
2023-05-23T08:51:52.291Z,2.72
2023-05-23T08:54:22.465Z,2.60
2023-05-23T08:56:50.006Z,1.77
2023-05-23T08:59:19.161Z,2.42
2023-05-23T09:01:48.543Z,2.45
2023-05-23T09:04:16.786Z,3.25
2023-05-23T09:06:50.846Z,2.38
2023-05-23T09:09:19.327Z,2.55
2023-05-23T09:11:47.316Z,2.20
2023-05-23T09:14:15.603Z,2.70
2023-05-23T09:16:47.908Z,2.28
2023-05-23T09:19:18.645Z,2.20
2023-05-23T09:21:55.169Z,2.05
2023-05-23T09:24:36.086Z,2.35
2023-05-23T09:27:09.366Z,2.65
2023-05-23T09:29:42.137Z,2.97
2023-05-23T09:32:17.520Z,2.60
2023-05-23T09:34:59.455Z,2.55
2023-05-23T09:37:47.075Z,2.95
2023-05-23T09:40:15.411Z,1.85
2023-05-23T09:42:51.211Z,2.50
2023-05-23T09:45:18.552Z,2.17
2023-05-23T09:47:53.282Z,2.33
2023-05-23T09:50:21.306Z,2.78
2023-05-23T09:52:49.237Z,2.70
2023-05-23T09:55:16.782Z,2.38
2023-05-23T09:57:44.850Z,2.97
2023-05-23T10:00:13.848Z,2.10
2023-05-23T10:03:00.297Z,2.55
2023-05-23T10:05:48.876Z,3.13
2023-05-23T10:08:29.993Z,3.00
2023-05-23T10:10:57.266Z,2.42
2023-05-23T10:13:29.138Z,2.55
2023-05-23T10:16:07.220Z,2.72
2023-05-23T10:18:39.995Z,2.63
2023-05-23T10:21:12.551Z,3.60
2023-05-23T10:23:40.971Z,2.20
2023-05-23T10:26:08.763Z,2.28
2023-05-23T10:28:36.290Z,2.70
2023-05-23T10:31:03.866Z,2.60
2023-05-23T10:33:38.683Z,2.40
2023-05-23T10:36:12.898Z,2.58
2023-05-23T10:39:04.729Z,2.13
2023-05-23T10:41:43.556Z,2.30
2023-05-23T10:44:18.356Z,2.13
2023-05-23T10:46:58.295Z,2.22
2023-05-23T10:49:41.975Z,2.90
2023-05-23T10:52:11.152Z,1.92
2023-05-23T10:54:52.361Z,2.95
2023-05-23T10:57:27.775Z,2.92
2023-05-23T10:59:55.802Z,3.45
2023-05-23T11:02:27.696Z,2.50
2023-05-23T11:05:22.988Z,2.83
2023-05-23T11:08:32.441Z,3.17
2023-05-23T11:11:06.912Z,2.45
2023-05-23T11:13:53.030Z,2.15
2023-05-23T11:16:27.836Z,1.90
2023-05-23T11:19:20.217Z,2.05
2023-05-23T11:21:54.331Z,2.22
2023-05-23T11:24:22.510Z,1.98
2023-05-23T11:27:04.087Z,2.25
2023-05-23T11:29:31.564Z,2.50
2023-05-23T11:31:59.059Z,2.92
2023-05-23T11:34:26.885Z,2.60
2023-05-23T11:36:57.265Z,3.10
2023-05-23T11:39:24.552Z,2.55
2023-05-23T11:42:02.474Z,2.25
2023-05-23T11:44:30.363Z,2.65
2023-05-23T11:47:01.711Z,2.20
2023-05-23T11:49:36.495Z,1.90
2023-05-23T11:52:04.718Z,2.30
2023-05-23T11:54:32.031Z,2.53
2023-05-23T11:56:59.699Z,2.13
2023-05-23T11:59:28.471Z,2.50
2023-05-23T12:01:56.490Z,3.03
2023-05-23T12:04:26.533Z,2.10
2023-05-23T12:06:53.821Z,2.15
2023-05-23T12:09:21.942Z,2.72
2023-05-23T12:11:49.875Z,2.50
2023-05-23T12:14:18.561Z,3.00
2023-05-23T12:16:46.980Z,2.00
2023-05-23T12:19:17.294Z,2.65
2023-05-23T12:21:49.091Z,2.53
2023-05-23T12:24:19.939Z,2.40
2023-05-23T12:26:52.560Z,3.33
2023-05-23T12:29:22.364Z,3.03
2023-05-23T12:31:51.357Z,2.33
2023-05-23T12:34:20.729Z,2.10
2023-05-23T12:36:50.067Z,1.80
2023-05-23T12:39:26.611Z,2.20
2023-05-23T12:41:56.688Z,2.83
2023-05-23T12:44:24.013Z,1.88
2023-05-23T12:47:09.456Z,2.72
2023-05-23T12:49:42.345Z,2.95
2023-05-23T12:52:09.594Z,2.20
2023-05-23T12:54:36.842Z,2.22
2023-05-23T12:57:04.090Z,1.75
2023-05-23T12:59:31.297Z,2.63
2023-05-23T13:01:59.858Z,2.25
2023-05-23T13:04:28.468Z,2.75
2023-05-23T13:06:56.898Z,2.88
2023-05-23T13:09:24.103Z,2.58
2023-05-23T13:11:51.363Z,2.10
2023-05-23T13:14:18.769Z,3.22
2023-05-23T13:16:46.160Z,2.17
2023-05-23T13:19:13.512Z,2.13
2023-05-23T13:21:40.738Z,2.63
2023-05-23T13:24:08.962Z,2.42
2023-05-23T13:26:36.471Z,2.75
2023-05-23T13:29:03.745Z,2.22
2023-05-23T13:31:31.275Z,2.28
2023-05-23T13:33:58.607Z,2.22
2023-05-23T13:36:25.888Z,2.25
2023-05-23T13:38:53.165Z,2.20
2023-05-23T13:41:20.458Z,2.75
2023-05-23T13:43:47.666Z,2.63
2023-05-23T13:46:14.883Z,2.28
2023-05-23T13:48:42.211Z,2.78
2023-05-23T13:51:09.457Z,2.35
2023-05-23T13:53:36.729Z,2.25
2023-05-23T13:56:04.120Z,2.60
2023-05-23T13:58:32.783Z,2.50
2023-05-23T14:01:00.208Z,2.50
2023-05-23T14:03:27.484Z,2.17
2023-05-23T14:05:54.715Z,2.08
2023-05-23T14:08:22.147Z,2.80
2023-05-23T14:10:49.294Z,2.08
2023-05-23T14:13:16.519Z,2.53
2023-05-23T14:15:43.936Z,2.53
2023-05-23T14:18:11.286Z,2.35
2023-05-23T14:20:38.671Z,2.00
2023-05-23T14:23:05.924Z,2.47
2023-05-23T14:25:33.074Z,2.90
2023-05-23T14:28:00.536Z,2.35
2023-05-23T14:30:27.835Z,1.92
2023-05-23T14:32:55.160Z,2.33
2023-05-23T14:35:26.309Z,2.15
2023-05-23T14:37:53.624Z,2.42
2023-05-23T14:40:20.988Z,2.58
2023-05-23T14:42:48.283Z,2.80
2023-05-23T14:45:18.476Z,1.98
2023-05-23T14:47:46.893Z,2.00
2023-05-23T14:50:14.242Z,2.38
2023-05-23T14:52:41.558Z,2.47
2023-05-23T14:55:09.036Z,2.45
2023-05-23T14:57:36.268Z,3.13
2023-05-23T15:00:06.048Z,1.95
2023-05-23T15:02:33.636Z,2.95
2023-05-23T15:05:00.845Z,2.42
2023-05-23T15:07:28.117Z,1.80
2023-05-23T15:09:55.381Z,2.15
2023-05-23T15:12:22.911Z,2.42
2023-05-23T15:14:50.202Z,2.25
2023-05-23T15:17:20.501Z,1.88
2023-05-23T15:19:48.005Z,2.30
2023-05-23T15:22:33.605Z,2.00
2023-05-23T15:25:02.997Z,2.22
2023-05-23T15:27:30.239Z,1.55
2023-05-23T15:29:57.433Z,2.03
2023-05-23T15:32:24.728Z,2.05
2023-05-23T15:34:52.028Z,2.53
2023-05-23T15:37:19.372Z,2.38
2023-05-23T15:39:47.131Z,2.88
2023-05-23T15:42:14.361Z,3.15
2023-05-23T15:44:41.586Z,2.15
2023-05-23T15:47:08.881Z,2.90
2023-05-23T15:49:36.040Z,2.53
2023-05-23T15:52:03.254Z,1.90
2023-05-23T15:54:30.448Z,3.17
2023-05-23T15:56:57.587Z,2.42
2023-05-23T15:59:24.816Z,2.13
2023-05-23T16:01:51.988Z,1.80
2023-05-23T16:04:19.377Z,2.60
2023-05-23T16:06:46.543Z,2.35
2023-05-23T16:09:13.742Z,2.40
2023-05-23T16:11:41.064Z,2.10
2023-05-23T16:14:08.510Z,2.55
2023-05-23T16:16:35.807Z,2.20
2023-05-23T16:19:03.444Z,2.40
2023-05-23T16:21:30.954Z,2.45
2023-05-23T16:23:58.203Z,1.90
2023-05-23T16:26:26.405Z,2.38
2023-05-23T16:28:53.995Z,2.63
2023-05-23T16:31:26.804Z,2.10
2023-05-23T16:33:54.316Z,2.72
2023-05-23T16:36:22.034Z,2.58
2023-05-23T16:38:49.209Z,2.35
2023-05-23T16:41:16.503Z,2.72
2023-05-23T16:43:43.628Z,4.00
2023-05-23T16:46:10.980Z,3.30
2023-05-23T16:48:38.393Z,2.53
2023-05-23T16:51:05.847Z,3.28
2023-05-23T16:53:32.997Z,2.40
2023-05-23T16:56:00.194Z,1.90
2023-05-23T16:58:27.717Z,2.88
2023-05-23T17:00:55.026Z,2.25
2023-05-23T17:03:22.309Z,2.20
2023-05-23T17:05:49.664Z,2.80
2023-05-23T17:08:16.935Z,2.33
2023-05-23T17:10:44.308Z,2.17
2023-05-23T17:13:11.594Z,2.33
2023-05-23T17:15:38.863Z,2.22
2023-05-23T17:18:06.253Z,2.38
2023-05-23T17:20:33.645Z,3.17
2023-05-23T17:23:01.118Z,1.50
2023-05-23T17:25:28.383Z,2.85
2023-05-23T17:27:56.470Z,2.17
2023-05-23T17:30:23.609Z,2.97
2023-05-23T17:32:50.879Z,2.63
2023-05-23T17:35:19.541Z,2.90
2023-05-23T17:37:47.309Z,2.72
2023-05-23T17:40:15.828Z,2.40
2023-05-23T17:42:43.395Z,2.95
2023-05-23T17:45:11.047Z,2.58
2023-05-23T17:47:38.300Z,2.45
2023-05-23T17:50:06.357Z,2.72
2023-05-23T17:52:33.872Z,2.83
2023-05-23T17:55:01.352Z,2.88
2023-05-23T17:57:30.264Z,2.85
2023-05-23T17:59:58.123Z,2.28
2023-05-23T18:02:25.735Z,2.85
2023-05-23T18:04:53.001Z,2.35
2023-05-23T18:07:20.490Z,2.63
2023-05-23T18:09:48.433Z,2.30
2023-05-23T18:12:16.692Z,2.53
2023-05-23T18:14:44.144Z,2.72
2023-05-23T18:17:12.760Z,2.25
2023-05-23T18:19:40.156Z,2.60
2023-05-23T18:22:07.618Z,3.40
2023-05-23T18:24:34.950Z,2.85
2023-05-23T18:27:04.617Z,3.40
2023-05-23T18:29:32.246Z,3.38
2023-05-23T18:31:59.491Z,4.07
2023-05-23T18:34:29.144Z,3.03
2023-05-23T18:36:56.817Z,3.00
2023-05-23T18:39:24.360Z,3.05
2023-05-23T18:41:51.688Z,3.00
2023-05-23T18:44:20.640Z,2.90
2023-05-23T18:46:48.287Z,2.25
2023-05-23T18:49:15.857Z,3.15
2023-05-23T18:51:43.559Z,3.45
2023-05-23T18:54:10.782Z,3.17
2023-05-23T18:56:38.091Z,2.22
2023-05-23T18:59:06.753Z,2.42
2023-05-23T19:01:33.953Z,2.63
2023-05-23T19:04:01.775Z,2.30
2023-05-23T19:06:29.113Z,2.53
2023-05-23T19:08:56.452Z,2.85
2023-05-23T19:11:24.273Z,3.05
2023-05-23T19:13:51.508Z,2.28
2023-05-23T19:16:20.624Z,2.30
2023-05-23T19:18:48.427Z,2.22
2023-05-23T19:21:15.656Z,2.63
2023-05-23T19:23:42.942Z,2.83
2023-05-23T19:26:10.488Z,1.92
2023-05-23T19:28:37.639Z,2.50
2023-05-23T19:31:04.918Z,2.30
2023-05-23T19:33:32.101Z,1.98
2023-05-23T19:35:59.238Z,2.53
2023-05-23T19:38:26.905Z,2.10
2023-05-23T19:40:54.076Z,1.98
2023-05-23T19:43:21.303Z,1.75
2023-05-23T19:45:48.506Z,2.17
2023-05-23T19:48:16.168Z,2.35
2023-05-23T19:50:43.850Z,2.47
2023-05-23T19:53:11.564Z,2.28
2023-05-23T19:55:38.860Z,2.22
2023-05-23T19:58:06.285Z,2.25
2023-05-23T20:00:33.524Z,2.13
2023-05-23T20:03:00.786Z,2.63
2023-05-23T20:05:27.983Z,3.08
2023-05-23T20:07:55.285Z,2.45
2023-05-23T20:10:23.153Z,2.28
2023-05-23T20:12:50.447Z,2.35
2023-05-23T20:15:21.772Z,2.15
2023-05-23T20:17:55.159Z,2.60
2023-05-23T20:20:22.464Z,2.13
2023-05-23T20:22:49.793Z,2.40
2023-05-23T20:25:17.715Z,2.00
2023-05-23T20:27:44.912Z,2.58
2023-05-23T20:30:12.934Z,2.30
2023-05-23T20:32:42.454Z,1.85
2023-05-23T20:35:09.673Z,2.15
2023-05-23T20:37:36.975Z,2.30
2023-05-23T20:40:07.504Z,2.08
2023-05-23T20:42:36.441Z,3.13
2023-05-23T20:45:07.505Z,2.40
2023-05-23T20:47:37.440Z,2.20
2023-05-23T20:50:05.367Z,2.15
2023-05-23T20:52:32.925Z,2.72
2023-05-23T20:55:01.145Z,1.60
2023-05-23T20:57:28.539Z,2.38
2023-05-23T20:59:56.133Z,2.30
2023-05-23T21:02:23.431Z,2.90
2023-05-23T21:04:53.700Z,2.45
2023-05-23T21:07:21.485Z,3.20
2023-05-23T21:09:48.916Z,2.65
2023-05-23T21:12:16.229Z,2.40
2023-05-23T21:14:43.419Z,2.50
2023-05-23T21:17:10.755Z,3.70
2023-05-23T21:19:38.175Z,3.83
2023-05-23T21:22:05.665Z,3.75
2023-05-23T21:24:33.419Z,3.83
2023-05-23T21:27:01.938Z,3.25
2023-05-23T21:29:29.655Z,3.08
2023-05-23T21:31:57.682Z,3.08
2023-05-23T21:34:25.024Z,3.03
2023-05-23T21:36:53.557Z,3.00
2023-05-23T21:39:20.962Z,2.35
2023-05-23T21:41:48.378Z,2.33
2023-05-23T21:44:17.839Z,2.85
2023-05-23T21:46:45.607Z,3.20
2023-05-23T21:49:13.241Z,2.80
2023-05-23T21:51:40.546Z,2.20
2023-05-23T21:54:07.821Z,2.65
2023-05-23T21:56:35.016Z,2.40
2023-05-23T21:59:02.253Z,2.22
2023-05-23T22:01:29.949Z,2.35
2023-05-23T22:03:57.500Z,2.58
2023-05-23T22:06:25.010Z,2.22
2023-05-23T22:08:52.489Z,3.25
2023-05-23T22:11:19.720Z,2.65
2023-05-23T22:13:47.568Z,2.30
2023-05-23T22:16:14.819Z,2.30
2023-05-23T22:18:51.653Z,2.45
2023-05-23T22:21:19.650Z,2.22
2023-05-23T22:23:46.870Z,2.15
2023-05-23T22:26:14.134Z,2.47
2023-05-23T22:28:41.334Z,2.35
2023-05-23T22:31:10.395Z,2.83
2023-05-23T22:33:39.783Z,2.50
2023-05-23T22:36:07.935Z,2.97
2023-05-23T22:38:36.034Z,3.47
2023-05-23T22:41:03.450Z,3.20
2023-05-23T22:43:31.250Z,2.80
2023-05-23T22:45:58.505Z,2.80
2023-05-23T22:48:26.020Z,3.10
2023-05-23T22:50:57.218Z,2.38
2023-05-23T22:53:24.447Z,3.05
2023-05-23T22:55:51.665Z,2.88
2023-05-23T22:58:19.024Z,3.03
2023-05-23T23:00:46.438Z,1.92
2023-05-23T23:03:15.541Z,2.40
2023-05-23T23:05:43.092Z,2.72
2023-05-23T23:08:10.500Z,2.78
2023-05-23T23:10:37.786Z,2.55
2023-05-23T23:13:05.014Z,2.75
2023-05-23T23:15:33.932Z,2.83
2023-05-23T23:18:01.449Z,2.97
2023-05-23T23:20:29.006Z,2.28
2023-05-23T23:22:56.198Z,2.42
2023-05-23T23:25:23.769Z,2.50
2023-05-23T23:27:51.035Z,2.40
2023-05-23T23:30:18.278Z,3.35
2023-05-23T23:32:45.594Z,2.30
2023-05-23T23:35:12.817Z,2.25
2023-05-23T23:37:40.432Z,2.63
2023-05-23T23:40:08.785Z,2.25
2023-05-23T23:42:36.207Z,2.00
2023-05-23T23:45:04.133Z,1.92
2023-05-23T23:47:32.773Z,2.35
2023-05-23T23:50:00.155Z,2.85
2023-05-23T23:52:28.245Z,2.35
2023-05-23T23:54:55.662Z,2.00
2023-05-23T23:57:23.000Z,2.45
2023-05-23T23:59:50.357Z,2.70
